Time;durP1;ratioP1;P1;durP2;ratioP2;P2;SDS_P1;SDS_P2;PMS_P1;PMS_P2;Temp;Humidity;BMP_temperature;BMP_pressure;BME280_temperature;BME280_humidity;BME280_pressure;Samples;Min_cycle;Max_cycle;Signal;HPM_P1;HPM_P2
2023/11/26 00:01:37;;;;;;;2.80;1.17;;;2.20;33.50;;;;;;4974259;28;20183;-72
2023/11/26 00:04:02;;;;;;;4.37;1.33;;;2.20;33.20;;;;;;4974027;28;20630;-72
2023/11/26 00:06:28;;;;;;;13.37;1.70;;;2.10;33.00;;;;;;4973076;28;20269;-72
2023/11/26 00:08:54;;;;;;;6.03;1.17;;;2.10;33.30;;;;;;4973625;28;20182;-72
2023/11/26 00:11:20;;;;;;;2.90;1.97;;;2.00;33.30;;;;;;4974127;28;20207;-72
2023/11/26 00:13:46;;;;;;;2.08;1.23;;;2.00;35.50;;;;;;4972538;28;20295;-72
2023/11/26 00:16:11;;;;;;;3.35;1.40;;;2.10;34.90;;;;;;4973932;28;20186;-71
2023/11/26 00:18:40;;;;;;;2.33;1.20;;;2.00;34.40;;;;;;4972845;28;20180;-70
2023/11/26 00:21:06;;;;;;;2.10;1.17;;;2.00;33.70;;;;;;4972732;28;20180;-72
2023/11/26 00:23:32;;;;;;;2.50;1.13;;;1.90;34.60;;;;;;4973667;28;20198;-72
2023/11/26 00:25:57;;;;;;;2.00;1.38;;;1.90;35.20;;;;;;4972160;28;20224;-71
2023/11/26 00:28:23;;;;;;;2.47;1.60;;;1.80;35.50;;;;;;4972513;28;20218;-70
2023/11/26 00:30:49;;;;;;;2.00;1.10;;;1.80;35.40;;;;;;4973660;28;20217;-72
2023/11/26 00:33:18;;;;;;;5.23;1.67;;;1.80;37.80;;;;;;4973748;28;20654;-72
2023/11/26 00:35:44;;;;;;;3.45;1.50;;;1.90;38.10;;;;;;4972260;28;20187;-72
2023/11/26 00:38:11;;;;;;;3.92;1.60;;;2.00;38.20;;;;;;4972331;28;20237;-72
2023/11/26 00:40:37;;;;;;;3.88;1.83;;;2.10;39.40;;;;;;4972076;28;20186;-73
2023/11/26 00:43:02;;;;;;;3.13;1.33;;;2.20;37.20;;;;;;4973410;28;20718;-73
2023/11/26 00:45:28;;;;;;;2.70;1.40;;;2.30;37.90;;;;;;4971942;28;20189;-72
2023/11/26 00:47:53;;;;;;;2.83;1.60;;;2.30;37.30;;;;;;4973418;28;20179;-71
2023/11/26 00:50:19;;;;;;;11.03;2.13;;;2.30;36.60;;;;;;4973311;28;20730;-72
2023/11/26 00:52:45;;;;;;;2.60;1.80;;;2.30;35.90;;;;;;4973418;28;20210;-72
2023/11/26 00:55:11;;;;;;;3.65;1.60;;;2.20;36.40;;;;;;4973180;28;20178;-73
2023/11/26 00:57:37;;;;;;;7.07;1.67;;;2.20;37.00;;;;;;4971981;28;20178;-73
2023/11/26 01:00:07;;;;;;;2.50;1.53;;;2.30;37.10;;;;;;4971905;28;20180;-72
2023/11/26 01:02:34;;;;;;;5.20;1.75;;;2.30;37.50;;;;;;4973308;28;20196;-72
2023/11/26 01:04:59;;;;;;;3.38;1.73;;;2.30;38.10;;;;;;4973072;28;20550;-73
2023/11/26 01:07:25;;;;;;;3.50;2.10;;;2.30;37.30;;;;;;4971863;28;20237;-72
2023/11/26 01:09:51;;;;;;;2.67;2.15;;;2.40;36.70;;;;;;4973004;28;20174;-72
2023/11/26 01:12:17;;;;;;;3.30;1.43;;;2.40;36.00;;;;;;4973177;28;20203;-72
2023/11/26 01:14:43;;;;;;;2.33;1.60;;;2.50;36.00;;;;;;4972830;28;20180;-72
2023/11/26 01:17:08;;;;;;;5.60;2.00;;;2.50;35.70;;;;;;4971665;28;20179;-72
2023/11/26 01:19:34;;;;;;;4.70;2.03;;;2.50;36.00;;;;;;4973050;28;20183;-72
2023/11/26 01:21:59;;;;;;;3.73;1.80;;;2.60;36.20;;;;;;4972030;28;20255;-72
2023/11/26 01:24:25;;;;;;;3.60;1.97;;;2.60;36.10;;;;;;4972565;28;20633;-72
2023/11/26 01:26:50;;;;;;;2.73;1.80;;;2.60;36.20;;;;;;4972905;28;20178;-71
2023/11/26 01:29:16;;;;;;;7.30;2.57;;;2.60;34.50;;;;;;4973083;28;20177;-71
2023/11/26 01:31:42;;;;;;;3.93;2.80;;;2.60;34.80;;;;;;4972805;28;20295;-72
2023/11/26 01:34:08;;;;;;;3.27;1.90;;;2.80;34.40;;;;;;4972561;28;20783;-73
2023/11/26 01:36:33;;;;;;;5.95;1.85;;;2.80;34.10;;;;;;4972838;28;20184;-73
2023/11/26 01:38:59;;;;;;;2.83;2.13;;;2.80;31.80;;;;;;4971374;28;20191;-72
2023/11/26 01:41:25;;;;;;;2.47;2.00;;;2.80;31.60;;;;;;4972848;28;20263;-72
2023/11/26 01:43:51;;;;;;;2.63;1.87;;;2.80;31.20;;;;;;4972612;28;20225;-72
2023/11/26 01:46:17;;;;;;;2.10;1.60;;;2.80;31.20;;;;;;4972626;28;20178;-73
2023/11/26 01:48:43;;;;;;;3.60;2.47;;;2.80;29.60;;;;;;4972690;28;20426;-73
2023/11/26 01:51:10;;;;;;;4.93;2.73;;;2.70;29.50;;;;;;4971280;28;20307;-71
2023/11/26 01:53:40;;;;;;;3.30;2.10;;;2.70;28.50;;;;;;4972424;28;20192;-72
2023/11/26 01:56:07;;;;;;;3.88;2.38;;;2.70;29.10;;;;;;4972736;28;20222;-73
2023/11/26 01:58:34;;;;;;;2.72;1.63;;;2.70;30.10;;;;;;4972731;28;20549;-71
2023/11/26 02:01:00;;;;;;;5.85;2.42;;;2.80;28.90;;;;;;4972640;28;20202;-72
2023/11/26 02:03:25;;;;;;;3.53;2.20;;;2.70;28.00;;;;;;4971368;28;20204;-71
2023/11/26 02:05:51;;;;;;;4.10;2.47;;;2.60;28.30;;;;;;4972380;28;20177;-70
2023/11/26 02:08:19;;;;;;;3.33;2.50;;;2.60;28.70;;;;;;4972339;28;20188;-71
2023/11/26 02:10:44;;;;;;;3.95;2.55;;;2.60;27.80;;;;;;4972660;28;20284;-71
2023/11/26 02:13:10;;;;;;;3.27;2.60;;;2.50;26.70;;;;;;4972543;28;20346;-71
2023/11/26 02:15:36;;;;;;;5.30;2.23;;;2.50;27.80;;;;;;4972242;28;20180;-70
2023/11/26 02:18:02;;;;;;;3.17;2.10;;;2.50;29.10;;;;;;4972390;28;20255;-70
2023/11/26 02:20:29;;;;;;;5.10;2.47;;;2.60;30.00;;;;;;4971145;28;20174;-71
2023/11/26 02:22:54;;;;;;;5.53;2.10;;;2.60;29.30;;;;;;4972206;28;20196;-71
2023/11/26 02:25:23;;;;;;;5.17;2.27;;;2.60;26.80;;;;;;4970929;28;20175;-71
2023/11/26 02:27:51;;;;;;;4.20;2.20;;;2.50;25.90;;;;;;4972334;28;20581;-71
2023/11/26 02:30:20;;;;;;;4.07;2.25;;;2.50;26.80;;;;;;4972246;28;20420;-71
2023/11/26 02:32:47;;;;;;;3.10;1.75;;;2.50;26.70;;;;;;4973556;28;20571;-71
2023/11/26 02:35:12;;;;;;;6.38;2.25;;;2.50;27.30;;;;;;4975590;28;20207;-71
2023/11/26 02:37:38;;;;;;;4.33;1.80;;;2.50;27.70;;;;;;4975714;28;20659;-71
2023/11/26 02:40:05;;;;;;;3.43;2.20;;;2.40;27.90;;;;;;4975724;28;20551;-71
2023/11/26 02:42:32;;;;;;;2.80;2.10;;;2.40;28.50;;;;;;4975475;28;20266;-71
2023/11/26 02:44:59;;;;;;;5.00;2.15;;;2.40;28.80;;;;;;4975601;28;20219;-71
2023/11/26 02:47:26;;;;;;;2.83;1.38;;;2.40;29.80;;;;;;4974419;28;20181;-71
2023/11/26 02:49:52;;;;;;;3.65;1.92;;;2.50;28.90;;;;;;4975426;28;20204;-71
2023/11/26 02:52:18;;;;;;;2.90;1.80;;;2.50;29.00;;;;;;4974020;28;20308;-70
2023/11/26 02:54:44;;;;;;;3.00;2.03;;;2.50;29.70;;;;;;4973995;28;20180;-71
2023/11/26 02:57:10;;;;;;;4.10;2.20;;;2.50;28.10;;;;;;4975590;28;20636;-70
2023/11/26 02:59:35;;;;;;;3.33;2.20;;;2.60;27.90;;;;;;4974075;28;20180;-71
2023/11/26 03:02:02;;;;;;;4.40;2.33;;;2.70;26.60;;;;;;4975313;28;20649;-71
2023/11/26 03:04:27;;;;;;;2.20;1.50;;;2.60;25.40;;;;;;4973727;28;20575;-71
2023/11/26 03:06:53;;;;;;;3.03;2.50;;;2.50;25.20;;;;;;4975254;28;20427;-71
2023/11/26 03:09:37;;;;;;;3.70;2.07;;;2.60;25.80;;;;;;4975514;28;20557;-71
2023/11/26 03:14:53;;;;;;;3.97;3.00;;;2.50;26.70;;;;;;4975225;28;20201;-71
2023/11/26 03:17:20;;;;;;;8.07;2.25;;;2.50;27.50;;;;;;4973840;28;20675;-70
2023/11/26 03:19:47;;;;;;;11.10;3.10;;;2.50;29.30;;;;;;4973794;28;20240;-71
2023/11/26 03:22:13;;;;;;;4.95;2.42;;;2.70;28.70;;;;;;4974947;28;20185;-71
2023/11/26 03:24:38;;;;;;;2.77;1.90;;;2.80;27.40;;;;;;4974812;28;20215;-70
2023/11/26 03:27:04;;;;;;;4.30;2.43;;;2.80;27.20;;;;;;4974928;28;20420;-71
2023/11/26 03:29:30;;;;;;;4.40;3.00;;;2.80;26.90;;;;;;4973574;28;20727;-71
2023/11/26 03:31:56;;;;;;;3.00;2.00;;;2.80;26.90;;;;;;4973458;28;20221;-71
2023/11/26 03:34:23;;;;;;;4.27;2.33;;;2.90;26.20;;;;;;4974521;28;20192;-71
2023/11/26 03:36:49;;;;;;;5.40;2.63;;;2.80;25.40;;;;;;4974645;28;20411;-71
2023/11/26 03:39:18;;;;;;;3.27;2.00;;;2.80;26.60;;;;;;4973393;28;20212;-71
2023/11/26 03:41:44;;;;;;;3.17;2.28;;;2.80;27.00;;;;;;4974769;28;20426;-71
2023/11/26 03:44:09;;;;;;;5.60;2.83;;;2.80;27.00;;;;;;4973684;28;20584;-71
2023/11/26 03:46:37;;;;;;;4.37;2.03;;;2.70;26.90;;;;;;4974676;28;20781;-71
2023/11/26 03:49:03;;;;;;;9.38;2.95;;;2.80;26.80;;;;;;4973479;28;20742;-72
2023/11/26 03:51:28;;;;;;;6.80;2.40;;;2.70;25.60;;;;;;4974336;28;20290;-72
2023/11/26 03:53:54;;;;;;;7.37;2.83;;;2.60;25.40;;;;;;4973128;28;20565;-72
2023/11/26 03:56:20;;;;;;;3.03;1.80;;;2.60;26.50;;;;;;4974461;28;20707;-72
2023/11/26 03:58:45;;;;;;;4.87;2.17;;;2.50;27.80;;;;;;4973284;28;20193;-72
2023/11/26 04:01:11;;;;;;;6.30;2.20;;;2.50;27.90;;;;;;4974333;28;20339;-72
2023/11/26 04:03:37;;;;;;;4.67;3.00;;;2.40;27.80;;;;;;4974214;28;20210;-72
2023/11/26 04:06:03;;;;;;;3.40;2.75;;;2.40;29.20;;;;;;4974202;28;20470;-72
2023/11/26 04:08:29;;;;;;;5.35;3.08;;;2.40;29.40;;;;;;4974177;28;20179;-72
2023/11/26 04:10:55;;;;;;;3.50;2.03;;;2.40;29.90;;;;;;4972831;28;20210;-72
2023/11/26 04:13:22;;;;;;;6.17;3.13;;;2.50;30.00;;;;;;4974056;28;20508;-72
2023/11/26 04:15:54;;;;;;;2.90;2.47;;;2.50;30.90;;;;;;4974094;28;20179;-72
2023/11/26 04:18:21;;;;;;;4.10;3.05;;;2.50;30.00;;;;;;4972840;28;20177;-72
2023/11/26 04:20:47;;;;;;;7.18;2.88;;;2.50;30.00;;;;;;4973893;28;20191;-72
2023/11/26 04:23:15;;;;;;;6.22;2.30;;;2.50;30.90;;;;;;4972634;28;20214;-72
2023/11/26 04:25:41;;;;;;;4.25;2.33;;;2.50;31.70;;;;;;4973866;28;20605;-72
2023/11/26 04:28:06;;;;;;;3.43;2.33;;;2.50;31.80;;;;;;4973781;28;20205;-72
2023/11/26 04:30:32;;;;;;;6.40;2.30;;;2.60;30.80;;;;;;4973656;28;20179;-72
2023/11/26 04:32:57;;;;;;;3.50;2.23;;;2.60;30.00;;;;;;4972719;28;20263;-72
2023/11/26 04:35:24;;;;;;;4.90;2.60;;;2.50;29.90;;;;;;4972173;28;20607;-72
2023/11/26 04:37:50;;;;;;;3.95;2.80;;;2.50;29.50;;;;;;4972265;28;20180;-72
2023/11/26 04:40:17;;;;;;;4.07;2.30;;;2.60;30.10;;;;;;4973538;28;20181;-72
2023/11/26 04:42:43;;;;;;;6.88;2.33;;;2.60;30.30;;;;;;4971979;28;20224;-72
2023/11/26 04:45:09;;;;;;;4.20;2.23;;;2.60;30.40;;;;;;4973360;28;20211;-72
2023/11/26 04:47:37;;;;;;;3.05;2.25;;;2.60;30.00;;;;;;4972113;28;20191;-72
2023/11/26 04:50:04;;;;;;;4.22;2.60;;;2.60;30.00;;;;;;4972019;28;20207;-72
2023/11/26 04:52:30;;;;;;;3.38;2.47;;;2.70;29.70;;;;;;4973231;28;20647;-72
2023/11/26 04:54:57;;;;;;;3.72;2.20;;;2.60;29.60;;;;;;4971694;28;20186;-72
2023/11/26 04:57:22;;;;;;;8.30;1.97;;;2.60;29.00;;;;;;4973342;28;20176;-72
2023/11/26 04:59:48;;;;;;;4.03;1.97;;;2.50;27.80;;;;;;4973243;28;20197;-72
2023/11/26 05:02:14;;;;;;;2.10;1.50;;;2.50;28.30;;;;;;4973117;28;20597;-72
2023/11/26 05:04:40;;;;;;;4.22;1.80;;;2.50;29.30;;;;;;4973442;28;20178;-72
2023/11/26 05:07:06;;;;;;;2.83;1.50;;;2.60;28.60;;;;;;4973111;28;20207;-72
2023/11/26 05:09:32;;;;;;;3.07;2.40;;;2.60;28.80;;;;;;4973129;28;20426;-72
2023/11/26 05:11:59;;;;;;;2.95;1.90;;;2.50;28.10;;;;;;4973009;28;20214;-72
2023/11/26 05:14:24;;;;;;;3.20;2.00;;;2.60;29.80;;;;;;4972909;28;20568;-72
2023/11/26 05:16:50;;;;;;;8.33;2.87;;;2.60;29.00;;;;;;4973092;28;20171;-72
2023/11/26 05:19:15;;;;;;;3.20;2.07;;;2.50;29.20;;;;;;4971646;28;20664;-72
2023/11/26 05:21:42;;;;;;;5.50;1.60;;;2.60;29.40;;;;;;4973033;28;20538;-72
2023/11/26 05:24:07;;;;;;;2.80;1.90;;;2.60;29.50;;;;;;4972644;28;20191;-72
2023/11/26 05:26:34;;;;;;;2.63;1.50;;;2.60;29.50;;;;;;4973026;28;20224;-72
2023/11/26 05:28:59;;;;;;;2.90;1.60;;;2.60;28.90;;;;;;4972890;28;20424;-72
2023/11/26 05:31:25;;;;;;;4.33;1.87;;;2.70;28.60;;;;;;4972791;28;20210;-72
2023/11/26 05:33:54;;;;;;;3.73;2.00;;;2.70;28.70;;;;;;4971429;28;20228;-72
2023/11/26 05:36:20;;;;;;;3.42;1.50;;;2.70;28.00;;;;;;4971311;28;20226;-73
2023/11/26 05:38:46;;;;;;;5.53;2.23;;;2.50;27.50;;;;;;4972815;28;20633;-72
2023/11/26 05:41:12;;;;;;;3.10;1.83;;;2.60;28.80;;;;;;4972818;28;20917;-72
2023/11/26 05:43:37;;;;;;;2.40;1.60;;;2.50;28.30;;;;;;4972607;28;20276;-72
2023/11/26 05:46:07;;;;;;;4.57;2.70;;;2.60;28.10;;;;;;4971469;28;20436;-72
2023/11/26 05:48:33;;;;;;;4.60;1.58;;;2.60;28.30;;;;;;4972708;28;20277;-72
2023/11/26 05:50:59;;;;;;;2.30;1.50;;;2.60;28.10;;;;;;4972560;28;20200;-72
2023/11/26 05:53:25;;;;;;;2.20;1.13;;;2.60;27.80;;;;;;4972620;28;20198;-72
2023/11/26 05:55:51;;;;;;;2.13;1.10;;;2.60;27.20;;;;;;4972699;28;20542;-72
2023/11/26 05:58:16;;;;;;;2.97;1.60;;;2.60;27.20;;;;;;4973152;28;20180;-72
2023/11/26 06:00:42;;;;;;;5.17;1.50;;;2.60;27.60;;;;;;4974281;28;20700;-72
2023/11/26 06:03:08;;;;;;;2.25;1.38;;;2.60;26.80;;;;;;4973928;28;20209;-72
2023/11/26 06:05:35;;;;;;;1.80;0.90;;;2.60;26.80;;;;;;4972608;28;20188;-72
2023/11/26 06:08:04;;;;;;;1.63;0.95;;;2.50;26.70;;;;;;4975346;28;20452;-72
2023/11/26 06:10:33;;;;;;;2.67;1.45;;;2.50;26.70;;;;;;4977744;28;20257;-72
2023/11/26 06:12:59;;;;;;;2.08;1.00;;;2.60;26.80;;;;;;4977733;28;20195;-72
2023/11/26 06:15:26;;;;;;;3.27;1.20;;;2.50;26.60;;;;;;4978082;28;20279;-72
2023/11/26 06:17:52;;;;;;;2.30;1.17;;;2.60;26.80;;;;;;4976765;28;20250;-72
2023/11/26 06:20:17;;;;;;;2.47;1.40;;;2.60;26.10;;;;;;4976849;28;20184;-72
2023/11/26 06:22:43;;;;;;;1.80;0.93;;;2.60;25.90;;;;;;4977379;28;20225;-72
2023/11/26 06:25:11;;;;;;;3.13;1.40;;;2.60;26.80;;;;;;4977066;28;20176;-72
2023/11/26 06:27:38;;;;;;;2.10;0.90;;;2.60;26.00;;;;;;4976944;28;20176;-72
2023/11/26 06:30:05;;;;;;;3.75;1.30;;;2.60;25.90;;;;;;4976970;28;20183;-73
2023/11/26 06:32:31;;;;;;;2.85;0.90;;;2.60;25.80;;;;;;4976518;28;20616;-72
2023/11/26 06:34:56;;;;;;;2.33;1.57;;;2.60;25.00;;;;;;4976429;28;20176;-73
2023/11/26 06:37:24;;;;;;;2.33;1.10;;;2.60;25.80;;;;;;4975244;28;20186;-72
2023/11/26 06:39:49;;;;;;;3.25;1.10;;;2.60;25.40;;;;;;4976370;28;20170;-72
2023/11/26 06:42:15;;;;;;;3.20;1.57;;;2.60;26.00;;;;;;4976148;28;20177;-72
2023/11/26 06:44:40;;;;;;;2.33;1.13;;;2.60;25.50;;;;;;4976100;28;20194;-72
2023/11/26 06:47:06;;;;;;;4.80;1.10;;;2.60;25.00;;;;;;4976127;28;20660;-72
2023/11/26 06:49:31;;;;;;;2.20;1.00;;;2.60;24.90;;;;;;4976206;28;20667;-73
2023/11/26 06:51:57;;;;;;;3.00;1.23;;;2.70;26.10;;;;;;4974589;28;20215;-72
2023/11/26 06:54:23;;;;;;;2.27;1.27;;;2.80;25.20;;;;;;4975716;28;20279;-72
2023/11/26 06:56:48;;;;;;;5.13;1.33;;;2.70;24.00;;;;;;4975938;28;20173;-73
2023/11/26 06:59:14;;;;;;;1.87;1.03;;;2.70;23.20;;;;;;4975715;28;20180;-72
2023/11/26 07:01:39;;;;;;;2.83;1.10;;;2.70;24.60;;;;;;4975700;28;20188;-72
2023/11/26 07:04:05;;;;;;;3.10;1.00;;;2.70;23.50;;;;;;4975828;28;20547;-71
2023/11/26 07:06:31;;;;;;;2.03;1.10;;;2.70;24.30;;;;;;4975981;28;20181;-71
2023/11/26 07:09:00;;;;;;;2.20;1.20;;;2.70;24.20;;;;;;4975920;28;20266;-73
2023/11/26 07:11:26;;;;;;;1.90;1.05;;;2.70;25.30;;;;;;4974158;28;20569;-72
2023/11/26 07:13:52;;;;;;;3.58;1.83;;;2.70;25.40;;;;;;4975305;28;20206;-72
2023/11/26 07:16:19;;;;;;;3.10;1.63;;;2.60;24.50;;;;;;4975259;28;20184;-72
2023/11/26 07:18:47;;;;;;;2.28;1.15;;;2.60;25.40;;;;;;4974376;28;20272;-72
2023/11/26 07:21:14;;;;;;;4.05;1.92;;;2.70;26.40;;;;;;4975251;28;20674;-72
2023/11/26 07:23:40;;;;;;;2.33;1.50;;;2.70;26.00;;;;;;4975209;28;20281;-73
2023/11/26 07:26:14;;;;;;;5.67;2.20;;;2.70;26.00;;;;;;4974923;28;20177;-72
2023/11/26 07:28:40;;;;;;;3.35;1.88;;;2.80;25.20;;;;;;4975006;28;20423;-73
2023/11/26 07:31:16;;;;;;;3.50;2.20;;;2.80;24.40;;;;;;4975046;28;20572;-72
2023/11/26 07:33:42;;;;;;;4.80;2.30;;;2.90;25.00;;;;;;4975259;28;20531;-72
2023/11/26 07:36:17;;;;;;;2.73;1.50;;;2.90;23.90;;;;;;4974857;28;20206;-72
2023/11/26 07:38:43;;;;;;;2.00;0.85;;;2.90;23.00;;;;;;4975051;28;20159;-72
2023/11/26 07:41:09;;;;;;;2.30;1.43;;;3.00;23.00;;;;;;4974996;28;20206;-73
2023/11/26 07:43:39;;;;;;;2.78;1.30;;;3.00;23.00;;;;;;4973245;28;20465;-72
2023/11/26 07:46:06;;;;;;;2.35;1.15;;;3.10;23.60;;;;;;4973302;28;20181;-72
2023/11/26 07:48:35;;;;;;;4.90;1.90;;;3.20;23.60;;;;;;4974852;28;20206;-72
2023/11/26 07:51:03;;;;;;;2.60;1.37;;;3.10;20.70;;;;;;4974768;28;20199;-73
2023/11/26 07:53:33;;;;;;;2.10;1.10;;;3.20;20.70;;;;;;4974794;28;20444;-73
2023/11/26 07:56:00;;;;;;;2.38;1.33;;;3.10;18.90;;;;;;4974536;28;20180;-72
2023/11/26 07:58:31;;;;;;;3.10;1.53;;;3.20;20.10;;;;;;4974770;28;20180;-72
2023/11/26 08:01:04;;;;;;;3.37;1.90;;;3.20;18.70;;;;;;4974592;28;20425;-72
2023/11/26 08:03:34;;;;;;;2.63;1.30;;;3.20;18.90;;;;;;4973186;28;20455;-72
2023/11/26 08:06:01;;;;;;;3.35;1.77;;;3.20;18.80;;;;;;4974420;28;20419;-72
2023/11/26 08:08:34;;;;;;;3.37;1.83;;;3.10;18.90;;;;;;4974238;28;20206;-73
2023/11/26 08:11:01;;;;;;;3.90;2.07;;;3.10;19.00;;;;;;4976050;28;20479;-72
2023/11/26 08:13:28;;;;;;;5.47;1.90;;;3.20;19.00;;;;;;4972622;28;20474;-73
2023/11/26 08:15:57;;;;;;;4.23;1.93;;;3.40;19.10;;;;;;4973922;28;20179;-73
2023/11/26 08:18:24;;;;;;;2.35;1.42;;;3.50;19.20;;;;;;4975053;28;20495;-72
2023/11/26 08:20:51;;;;;;;2.33;1.50;;;3.60;16.90;;;;;;4983592;28;20218;-72
2023/11/26 08:23:17;;;;;;;2.50;1.60;;;3.70;17.90;;;;;;4974663;28;20952;-72
2023/11/26 08:25:44;;;;;;;3.07;1.60;;;3.70;16.70;;;;;;4981240;28;20427;-72
2023/11/26 08:28:11;;;;;;;3.75;2.22;;;3.60;16.10;;;;;;4974037;28;20935;-72
2023/11/26 08:30:47;;;;;;;2.83;1.60;;;3.50;17.00;;;;;;4973053;28;20657;-72
2023/11/26 08:33:15;;;;;;;3.27;1.83;;;3.40;17.40;;;;;;4973432;28;20458;-73
2023/11/26 08:35:41;;;;;;;2.30;1.40;;;3.50;18.20;;;;;;4975850;28;20441;-69
2023/11/26 08:38:08;;;;;;;2.40;1.53;;;3.60;17.70;;;;;;4977440;28;20450;-70
2023/11/26 08:40:38;;;;;;;2.87;1.97;;;3.70;18.20;;;;;;4974459;28;20252;-74
2023/11/26 08:43:10;;;;;;;5.10;2.00;;;3.60;18.20;;;;;;4971553;28;20561;-70
2023/11/26 08:45:42;;;;;;;2.53;1.47;;;3.70;19.30;;;;;;4973744;28;20916;-70
2023/11/26 08:48:13;;;;;;;2.90;1.63;;;3.90;19.40;;;;;;4972254;28;20430;-71
2023/11/26 08:50:39;;;;;;;3.93;2.50;;;4.10;18.10;;;;;;4973715;28;20904;-70
2023/11/26 08:53:07;;;;;;;4.03;2.10;;;4.30;17.10;;;;;;4971974;28;20436;-70
2023/11/26 08:55:33;;;;;;;3.90;2.13;;;4.50;15.60;;;;;;4973467;28;20433;-71
2023/11/26 08:58:00;;;;;;;4.93;1.80;;;4.40;13.80;;;;;;4972299;28;20433;-71
2023/11/26 09:00:29;;;;;;;5.23;3.23;;;4.40;14.10;;;;;;4972044;28;20276;-71
2023/11/26 09:02:54;;;;;;;8.50;4.70;;;4.40;13.40;;;;;;4972401;28;20484;-71
2023/11/26 09:05:21;;;;;;;11.90;6.17;;;4.40;14.00;;;;;;4972032;28;20429;-71
2023/11/26 09:07:46;;;;;;;8.47;4.60;;;4.40;13.40;;;;;;4972167;28;20568;-71
2023/11/26 09:10:13;;;;;;;4.00;3.40;;;4.50;14.50;;;;;;4973306;28;20486;-71
2023/11/26 09:12:39;;;;;;;4.33;2.80;;;4.50;12.40;;;;;;4972930;28;20225;-71
2023/11/26 09:15:11;;;;;;;4.40;2.30;;;4.40;11.20;;;;;;4973275;28;20503;-71
2023/11/26 09:17:41;;;;;;;4.57;3.37;;;4.40;12.50;;;;;;4971722;28;20490;-69
2023/11/26 09:20:11;;;;;;;4.40;2.27;;;4.50;11.30;;;;;;4972905;28;20423;-70
2023/11/26 09:22:40;;;;;;;5.03;3.57;;;4.50;11.60;;;;;;4973508;28;20455;-69
2023/11/26 09:25:08;;;;;;;4.27;3.50;;;4.70;11.80;;;;;;4963887;28;20527;-69
2023/11/26 09:27:34;;;;;;;4.00;2.70;;;4.70;11.40;;;;;;4972926;28;20428;-69
2023/11/26 09:29:59;;;;;;;7.03;2.80;;;4.60;11.00;;;;;;4972631;28;20424;-69
2023/11/26 09:32:25;;;;;;;4.20;2.60;;;4.60;10.60;;;;;;4972809;28;20472;-69
2023/11/26 09:34:53;;;;;;;3.97;2.43;;;4.50;10.60;;;;;;4971291;28;20181;-69
2023/11/26 09:37:19;;;;;;;2.73;1.83;;;4.60;11.40;;;;;;4971074;28;20192;-69
2023/11/26 09:39:45;;;;;;;3.90;2.40;;;4.50;11.30;;;;;;4972691;28;20431;-69
2023/11/26 09:42:11;;;;;;;3.70;2.53;;;4.50;11.30;;;;;;4973396;28;20432;-69
2023/11/26 09:44:39;;;;;;;3.80;1.97;;;4.70;12.80;;;;;;4978336;28;20208;-70
2023/11/26 09:47:05;;;;;;;4.10;1.93;;;5.00;11.60;;;;;;4976733;28;20451;-70
2023/11/26 09:49:31;;;;;;;3.43;2.40;;;5.20;7.20;;;;;;4975247;28;20460;-69
2023/11/26 09:51:57;;;;;;;3.70;2.10;;;5.00;7.80;;;;;;4976342;28;20295;-70
2023/11/26 09:54:26;;;;;;;7.03;2.83;;;4.80;7.10;;;;;;4978109;28;20208;-70
2023/11/26 09:56:55;;;;;;;5.80;2.53;;;5.00;7.30;;;;;;4981014;28;20916;-71
2023/11/26 09:59:28;;;;;;;5.43;3.00;;;4.90;6.50;;;;;;4981164;28;20436;-70
2023/11/26 10:01:54;;;;;;;3.90;2.13;;;4.90;7.50;;;;;;4981666;28;20444;-70
2023/11/26 10:04:21;;;;;;;6.27;2.37;;;5.10;7.90;;;;;;4975487;28;21106;-71
2023/11/26 10:06:54;;;;;;;6.07;3.67;;;5.30;7.20;;;;;;4982212;28;21019;-71
2023/11/26 10:09:21;;;;;;;3.40;2.13;;;5.50;6.60;;;;;;4982577;28;20441;-71
2023/11/26 10:11:47;;;;;;;19.53;12.40;;;5.70;5.50;;;;;;4987816;28;20485;-71
2023/11/26 10:14:19;;;;;;;8.60;4.93;;;5.90;4.60;;;;;;4976183;28;20924;-71
2023/11/26 10:16:45;;;;;;;5.00;2.00;;;5.60;3.80;;;;;;4983347;28;20927;-71
2023/11/26 10:19:25;;;;;;;4.30;2.77;;;5.40;4.20;;;;;;4979824;28;20436;-71
2023/11/26 10:21:58;;;;;;;6.67;3.07;;;5.20;6.80;;;;;;4975728;28;20231;-71
2023/11/26 10:24:27;;;;;;;8.30;3.17;;;5.00;7.20;;;;;;4980848;28;20471;-71
2023/11/26 10:26:54;;;;;;;4.53;3.07;;;5.00;7.20;;;;;;4979299;28;20459;-71
2023/11/26 10:29:23;;;;;;;3.33;2.13;;;5.10;8.30;;;;;;4981431;28;20449;-70
2023/11/26 10:31:58;;;;;;;3.00;2.10;;;5.10;7.70;;;;;;4976864;28;20464;-71
2023/11/26 10:34:24;;;;;;;3.87;2.30;;;5.10;7.30;;;;;;4975693;28;20436;-70
2023/11/26 10:36:49;;;;;;;4.43;2.90;;;5.20;5.90;;;;;;4974715;28;20935;-71
2023/11/26 10:39:15;;;;;;;7.50;2.50;;;5.20;5.50;;;;;;4975381;28;20189;-70
2023/11/26 10:41:44;;;;;;;4.50;2.30;;;5.30;5.40;;;;;;4983093;28;20188;-71
2023/11/26 10:44:12;;;;;;;4.63;1.90;;;5.40;5.40;;;;;;4975385;28;20225;-70
2023/11/26 10:46:41;;;;;;;3.17;2.37;;;5.60;4.50;;;;;;4981058;28;20474;-71
2023/11/26 10:49:29;;;;;;;3.13;2.10;;;5.90;4.30;;;;;;4976084;28;20432;-71
2023/11/26 10:52:19;;;;;;;5.03;2.50;;;6.00;3.40;;;;;;4980060;28;20586;-71
2023/11/26 10:54:44;;;;;;;4.70;2.00;;;6.40;1.80;;;;;;4977696;28;20442;-71
2023/11/26 10:57:14;;;;;;;2.67;2.17;;;6.60;1.00;;;;;;4984416;28;20443;-70
2023/11/26 10:59:47;;;;;;;2.80;2.17;;;6.50;1.00;;;;;;4978566;28;20186;-70
2023/11/26 11:02:14;;;;;;;3.70;2.10;;;6.40;1.00;;;;;;4956291;28;20810;-71
2023/11/26 11:04:45;;;;;;;4.27;2.00;;;6.60;1.00;;;;;;4969805;28;20530;-70
2023/11/26 11:07:11;;;;;;;2.77;2.23;;;6.90;1.00;;;;;;4980135;28;20815;-70
2023/11/26 11:09:48;;;;;;;2.47;1.27;;;7.00;1.00;;;;;;4976918;28;20437;-71
2023/11/26 11:12:20;;;;;;;3.60;2.00;;;7.40;1.00;;;;;;4973217;28;20478;-73
2023/11/26 11:14:47;;;;;;;2.40;1.60;;;7.30;1.00;;;;;;4990526;28;20468;-70
2023/11/26 11:17:34;;;;;;;4.03;2.37;;;7.40;1.00;;;;;;4977742;28;20811;-71
2023/11/26 11:20:01;;;;;;;3.50;2.13;;;7.20;1.00;;;;;;4973880;28;20457;-72
2023/11/26 11:22:39;;;;;;;3.60;1.70;;;7.10;1.00;;;;;;4974091;28;20509;-71
2023/11/26 11:25:15;;;;;;;2.53;1.67;;;6.60;1.00;;;;;;4974907;28;20803;-72
2023/11/26 11:27:54;;;;;;;3.70;1.57;;;6.50;1.00;;;;;;4975173;28;20428;-72
2023/11/26 11:30:32;;;;;;;2.80;1.37;;;6.40;1.00;;;;;;4975232;28;20425;-71
2023/11/26 11:33:07;;;;;;;2.10;1.50;;;6.30;1.00;;;;;;4974710;28;20825;-70
2023/11/26 11:35:47;;;;;;;2.50;1.00;;;6.20;1.00;;;;;;4974798;28;20426;-70
2023/11/26 11:38:16;;;;;;;4.20;1.50;;;5.90;1.00;;;;;;4975035;28;20846;-72
2023/11/26 11:40:58;;;;;;;2.40;1.33;;;5.80;1.00;;;;;;4973278;28;20423;-71
2023/11/26 11:43:23;;;;;;;2.50;1.50;;;5.80;1.10;;;;;;4968424;28;20462;-71
2023/11/26 11:45:49;;;;;;;2.87;1.60;;;6.00;1.00;;;;;;4974850;28;20420;-71
2023/11/26 11:48:42;;;;;;;3.60;1.73;;;6.20;1.00;;;;;;4975146;28;20181;-71
2023/11/26 11:51:42;;;;;;;2.70;1.80;;;6.20;1.00;;;;;;4973378;28;20680;-71
2023/11/26 11:54:10;;;;;;;3.17;2.07;;;6.30;1.00;;;;;;4974645;28;20441;-71
2023/11/26 11:56:37;;;;;;;3.97;1.20;;;6.40;1.00;;;;;;4974962;28;20426;-72
2023/11/26 11:59:03;;;;;;;2.33;1.33;;;6.50;1.00;;;;;;4975707;28;20478;-72
2023/11/26 12:01:30;;;;;;;2.70;1.50;;;6.70;1.00;;;;;;4975193;28;20799;-73
2023/11/26 12:04:00;;;;;;;2.43;1.33;;;7.00;1.00;;;;;;4973719;28;20541;-73
2023/11/26 12:06:26;;;;;;;3.40;1.50;;;6.80;1.00;;;;;;4974222;28;20428;-71
2023/11/26 12:08:56;;;;;;;2.50;1.33;;;6.80;1.00;;;;;;4974639;28;20426;-71
2023/11/26 12:11:23;;;;;;;3.07;2.10;;;6.80;1.00;;;;;;4974205;28;20468;-71
2023/11/26 12:13:49;;;;;;;2.67;1.47;;;7.00;1.00;;;;;;4974322;28;20522;-71
2023/11/26 12:16:14;;;;;;;5.20;1.73;;;7.00;1.00;;;;;;4974229;28;20841;-71
2023/11/26 12:18:40;;;;;;;5.90;1.60;;;7.00;1.00;;;;;;4974190;28;20926;-71
2023/11/26 12:21:06;;;;;;;4.00;1.60;;;7.20;1.00;;;;;;4973083;28;20187;-72
2023/11/26 12:23:36;;;;;;;3.60;1.40;;;7.30;1.00;;;;;;4974311;28;20204;-72
2023/11/26 12:26:03;;;;;;;5.90;4.83;;;7.20;1.00;;;;;;4972413;28;20424;-72
2023/11/26 12:28:31;;;;;;;5.43;2.97;;;7.00;1.00;;;;;;4974054;28;20434;-73
2023/11/26 12:30:59;;;;;;;2.60;2.40;;;7.20;1.00;;;;;;4972817;28;20462;-72
2023/11/26 12:33:25;;;;;;;3.43;2.10;;;7.20;1.00;;;;;;4973952;28;20525;-70
2023/11/26 12:35:51;;;;;;;3.50;2.40;;;7.20;1.00;;;;;;4973764;28;20452;-72
2023/11/26 12:38:21;;;;;;;3.50;2.60;;;7.30;1.00;;;;;;4973896;28;20181;-69
2023/11/26 12:40:47;;;;;;;2.90;1.90;;;7.10;1.00;;;;;;4973727;28;20448;-69
2023/11/26 12:43:13;;;;;;;2.60;1.90;;;6.80;1.00;;;;;;4973447;28;20472;-70
2023/11/26 12:45:39;;;;;;;3.60;2.60;;;7.00;1.00;;;;;;4973466;28;20423;-70
2023/11/26 12:48:04;;;;;;;3.60;1.77;;;7.00;1.00;;;;;;4973812;28;20419;-70
2023/11/26 12:50:44;;;;;;;2.40;1.40;;;6.70;1.00;;;;;;4972398;28;20186;-70
2023/11/26 12:53:15;;;;;;;3.40;1.20;;;6.60;1.00;;;;;;4952939;28;20685;-69
2023/11/26 12:55:48;;;;;;;3.50;2.13;;;6.60;1.00;;;;;;4954230;28;20502;-69
2023/11/26 12:58:23;;;;;;;2.20;1.20;;;6.70;1.00;;;;;;4954348;29;20407;-69
2023/11/26 13:00:50;;;;;;;5.67;1.60;;;6.70;1.00;;;;;;4956896;28;20746;-70
2023/11/26 13:03:20;;;;;;;3.30;2.40;;;6.80;1.00;;;;;;4973755;28;20463;-71
2023/11/26 13:05:50;;;;;;;3.47;1.83;;;6.90;1.00;;;;;;4972041;28;20405;-70